Time;durP1;ratioP1;P1;durP2;ratioP2;P2;SDS_P1;SDS_P2;PMS_P1;PMS_P2;Temp;Humidity;BMP_temperature;BMP_pressure;BME280_temperature;BME280_humidity;BME280_pressure;Samples;Min_cycle;Max_cycle;Signal;HPM_P1;HPM_P2
2024/02/07 00:01:37;;;;;;;3.45;1.80;;;22.50;53.80;;;;;;6149476;22;86836;-62
2024/02/07 00:04:03;;;;;;;3.10;1.90;;;22.50;54.00;;;;;;6097711;22;88659;-65
2024/02/07 00:06:29;;;;;;;2.83;1.85;;;22.40;53.90;;;;;;6142350;22;87674;-63
2024/02/07 00:08:57;;;;;;;3.97;2.20;;;22.40;54.10;;;;;;6151481;22;87401;-65
2024/02/07 00:11:24;;;;;;;3.10;1.70;;;22.40;54.10;;;;;;6120878;22;91434;-65
2024/02/07 00:13:49;;;;;;;3.20;1.85;;;22.40;54.20;;;;;;6119597;22;90495;-62
2024/02/07 00:16:15;;;;;;;3.75;1.67;;;22.40;54.20;;;;;;6146415;22;88690;-64
2024/02/07 00:18:42;;;;;;;3.55;1.92;;;22.30;54.30;;;;;;6149809;22;87886;-65
2024/02/07 00:21:09;;;;;;;3.00;1.77;;;22.30;54.20;;;;;;6122419;22;89734;-65
2024/02/07 00:23:34;;;;;;;3.58;1.65;;;22.30;54.00;;;;;;6149974;22;87431;-63
2024/02/07 00:26:00;;;;;;;5.38;2.38;;;22.30;54.10;;;;;;6147080;22;87520;-65
2024/02/07 00:28:27;;;;;;;3.38;2.15;;;22.20;54.20;;;;;;6149056;22;88019;-64
2024/02/07 00:30:53;;;;;;;2.67;1.60;;;22.20;54.20;;;;;;6122564;22;88311;-64
2024/02/07 00:33:18;;;;;;;3.67;1.95;;;22.20;54.20;;;;;;6119518;22;88059;-65
2024/02/07 00:35:44;;;;;;;4.07;2.28;;;22.20;54.10;;;;;;6148225;22;87500;-64
2024/02/07 00:38:10;;;;;;;3.70;1.92;;;22.20;54.20;;;;;;6147389;22;89471;-63
2024/02/07 00:40:36;;;;;;;4.20;1.92;;;22.20;54.30;;;;;;6149774;22;87246;-65
2024/02/07 00:43:02;;;;;;;3.45;1.95;;;22.10;54.30;;;;;;6143195;22;88986;-63
2024/02/07 00:45:30;;;;;;;6.72;3.10;;;22.10;54.10;;;;;;6142862;22;87289;-64
2024/02/07 00:47:56;;;;;;;4.00;1.90;;;22.10;54.20;;;;;;6150066;22;87344;-64
2024/02/07 00:50:22;;;;;;;1.70;1.35;;;22.10;54.30;;;;;;6119346;22;91806;-64
2024/02/07 00:52:48;;;;;;;3.17;1.85;;;22.10;54.20;;;;;;6121025;22;89055;-64
2024/02/07 00:55:15;;;;;;;4.65;1.92;;;22.10;54.30;;;;;;6149508;22;87630;-64
2024/02/07 00:57:41;;;;;;;3.63;1.65;;;22.10;54.30;;;;;;6149697;22;87221;-64
2024/02/07 01:00:13;;;;;;;2.53;1.88;;;22.00;54.30;;;;;;6124010;22;87955;-64
2024/02/07 01:02:41;;;;;;;3.17;1.63;;;22.00;54.30;;;;;;6121253;22;90495;-64
2024/02/07 01:05:08;;;;;;;3.33;2.17;;;22.00;54.30;;;;;;6121839;22;90119;-61
2024/02/07 01:07:35;;;;;;;3.28;1.75;;;22.00;54.30;;;;;;6148899;22;87032;-64
2024/02/07 01:10:01;;;;;;;3.05;1.80;;;22.00;54.40;;;;;;6120026;22;88078;-64
2024/02/07 01:12:27;;;;;;;2.85;1.92;;;21.90;54.50;;;;;;6122800;22;88550;-62
2024/02/07 01:14:54;;;;;;;3.35;1.65;;;21.90;54.40;;;;;;6124686;22;87711;-64
2024/02/07 01:17:20;;;;;;;3.00;1.95;;;21.90;54.50;;;;;;6123592;22;87116;-65
2024/02/07 01:19:48;;;;;;;2.83;1.83;;;21.90;54.50;;;;;;6122750;22;89418;-65
2024/02/07 01:22:15;;;;;;;2.85;1.70;;;21.90;54.30;;;;;;6122667;22;88803;-65
2024/02/07 01:24:41;;;;;;;3.65;1.65;;;21.90;54.40;;;;;;6121705;22;87876;-63
2024/02/07 01:27:07;;;;;;;2.40;1.50;;;21.90;54.50;;;;;;6149404;22;88320;-63
2024/02/07 01:29:34;;;;;;;3.30;2.28;;;21.90;54.50;;;;;;6150039;22;87211;-64
2024/02/07 01:31:59;;;;;;;3.78;2.00;;;21.90;54.50;;;;;;6148782;22;88063;-65
2024/02/07 01:34:26;;;;;;;2.97;2.03;;;21.80;54.50;;;;;;6122169;22;88657;-66
2024/02/07 01:36:52;;;;;;;3.28;2.20;;;21.80;54.50;;;;;;6122692;22;87657;-62
2024/02/07 01:39:18;;;;;;;2.30;1.35;;;21.80;54.60;;;;;;6150046;22;87153;-65
2024/02/07 01:41:58;;;;;;;4.18;1.85;;;21.80;54.50;;;;;;6151399;22;88036;-64
2024/02/07 01:44:29;;;;;;;4.07;2.20;;;21.80;54.50;;;;;;6149980;22;92635;-65
2024/02/07 01:47:14;;;;;;;2.90;1.90;;;21.80;54.40;;;;;;6149739;22;87420;-64
2024/02/07 01:49:48;;;;;;;2.92;2.03;;;21.70;54.50;;;;;;6148595;22;87426;-64
2024/02/07 01:52:17;;;;;;;2.38;2.10;;;21.70;54.40;;;;;;6142274;22;88839;-64
2024/02/07 01:54:42;;;;;;;3.40;1.63;;;21.70;54.40;;;;;;6144419;22;89668;-63
2024/02/07 01:57:08;;;;;;;3.47;1.80;;;21.70;54.40;;;;;;6120750;22;87125;-63
2024/02/07 01:59:36;;;;;;;3.95;1.98;;;21.70;54.40;;;;;;6149805;22;87450;-64
2024/02/07 02:02:04;;;;;;;2.92;1.65;;;21.70;54.60;;;;;;6149015;22;87774;-64
2024/02/07 02:04:30;;;;;;;3.60;1.50;;;21.70;54.70;;;;;;6147469;22;87639;-65
2024/02/07 02:06:56;;;;;;;2.55;1.65;;;21.60;54.60;;;;;;6148407;22;87232;-65
2024/02/07 02:09:22;;;;;;;3.45;1.73;;;21.70;54.70;;;;;;6122571;22;88632;-64
2024/02/07 02:11:50;;;;;;;1.80;1.60;;;21.60;54.40;;;;;;6149605;22;87600;-65
2024/02/07 02:14:18;;;;;;;4.38;2.03;;;21.60;54.40;;;;;;6149391;22;87716;-64
2024/02/07 02:16:44;;;;;;;3.53;1.90;;;21.60;54.50;;;;;;6120905;22;88088;-64
2024/02/07 02:19:10;;;;;;;3.90;2.15;;;21.60;54.60;;;;;;6147670;22;87978;-65
2024/02/07 02:21:50;;;;;;;2.55;1.70;;;21.60;54.70;;;;;;6117112;22;90371;-64
2024/02/07 02:24:29;;;;;;;2.42;1.60;;;21.60;54.80;;;;;;6148748;22;87540;-65
2024/02/07 02:27:14;;;;;;;2.35;1.70;;;21.60;54.70;;;;;;6123558;22;87446;-63
2024/02/07 02:29:45;;;;;;;2.10;1.52;;;21.60;54.70;;;;;;6148153;22;90287;-63
2024/02/07 02:32:11;;;;;;;3.35;1.73;;;21.60;54.80;;;;;;6148697;22;87998;-65
2024/02/07 02:34:38;;;;;;;2.95;1.85;;;21.50;54.80;;;;;;6150299;22;87587;-65
2024/02/07 02:37:04;;;;;;;2.67;1.67;;;21.50;54.60;;;;;;6149999;22;86960;-64
2024/02/07 02:39:30;;;;;;;2.42;1.55;;;21.50;54.60;;;;;;6148844;22;87203;-63
2024/02/07 02:41:56;;;;;;;3.33;1.52;;;21.50;54.60;;;;;;6122350;22;89592;-65
2024/02/07 02:44:23;;;;;;;2.28;1.58;;;21.50;55.30;;;;;;6149298;22;92941;-65
2024/02/07 02:46:49;;;;;;;2.88;1.63;;;21.50;54.60;;;;;;6123884;22;87284;-64
2024/02/07 02:49:15;;;;;;;1.98;1.30;;;21.40;54.70;;;;;;6148377;22;86937;-64
2024/02/07 02:51:41;;;;;;;3.15;2.00;;;21.50;54.80;;;;;;6148572;22;87621;-64
2024/02/07 02:54:06;;;;;;;3.67;2.00;;;21.40;54.60;;;;;;6123632;22;88975;-64
2024/02/07 02:56:33;;;;;;;3.33;2.05;;;21.50;54.70;;;;;;6151795;22;87432;-66
2024/02/07 02:59:05;;;;;;;2.45;1.55;;;21.40;54.60;;;;;;6150458;22;86635;-63
2024/02/07 03:01:32;;;;;;;2.38;1.52;;;21.40;54.60;;;;;;6141735;22;87304;-64
2024/02/07 03:03:59;;;;;;;1.92;1.40;;;21.40;54.60;;;;;;6095184;22;88357;-62
2024/02/07 03:06:39;;;;;;;2.60;1.77;;;21.40;54.70;;;;;;6120542;22;88502;-65
2024/02/07 03:09:07;;;;;;;2.65;1.63;;;21.40;54.60;;;;;;6150125;22;87038;-64
2024/02/07 03:11:33;;;;;;;3.00;1.40;;;21.30;54.50;;;;;;6151271;22;88060;-64
2024/02/07 03:14:04;;;;;;;3.15;1.77;;;21.30;54.40;;;;;;6150321;22;87777;-64
2024/02/07 03:16:30;;;;;;;2.58;1.67;;;21.30;54.40;;;;;;6150092;22;87144;-62
2024/02/07 03:18:58;;;;;;;2.72;1.80;;;21.40;54.60;;;;;;6149073;22;87045;-66
2024/02/07 03:21:26;;;;;;;3.07;2.23;;;21.30;54.40;;;;;;6122841;22;88431;-62
2024/02/07 03:23:55;;;;;;;4.57;2.13;;;21.30;54.50;;;;;;6100228;22;87602;-65
2024/02/07 03:26:24;;;;;;;2.72;1.60;;;21.30;54.50;;;;;;6150981;22;87348;-65
2024/02/07 03:28:54;;;;;;;2.10;1.67;;;21.30;54.60;;;;;;6123167;22;86824;-63
2024/02/07 03:31:20;;;;;;;2.90;1.80;;;21.30;54.50;;;;;;6149988;22;89115;-64
2024/02/07 03:33:47;;;;;;;2.75;1.55;;;21.30;54.60;;;;;;6149243;22;89604;-64
2024/02/07 03:36:13;;;;;;;3.25;1.83;;;21.30;54.70;;;;;;6146335;22;87249;-62
2024/02/07 03:38:40;;;;;;;2.67;1.67;;;21.30;54.60;;;;;;6151247;22;87297;-66
2024/02/07 03:41:06;;;;;;;2.78;1.70;;;21.30;54.60;;;;;;6146988;22;88047;-64
2024/02/07 03:43:36;;;;;;;2.17;1.98;;;21.20;54.40;;;;;;6122531;22;87040;-65
2024/02/07 03:46:05;;;;;;;2.55;1.60;;;21.20;55.00;;;;;;6148880;22;87016;-65
2024/02/07 03:48:36;;;;;;;;;;;21.20;54.50;;;;;;6150808;22;86844;-64
2024/02/07 03:51:03;;;;;;;2.17;1.35;;;21.20;54.50;;;;;;6152110;22;89434;-64
2024/02/07 03:53:30;;;;;;;2.42;1.80;;;21.20;54.60;;;;;;6123699;22;88421;-62
2024/02/07 03:55:56;;;;;;;2.22;1.60;;;21.20;54.60;;;;;;6122059;22;88354;-64
2024/02/07 03:58:25;;;;;;;2.95;1.95;;;21.20;54.70;;;;;;6149178;22;88269;-63
2024/02/07 04:00:50;;;;;;;1.60;1.30;;;21.20;54.70;;;;;;6142982;22;88158;-64
2024/02/07 04:03:18;;;;;;;4.20;2.00;;;21.20;54.60;;;;;;6122069;22;89244;-63
2024/02/07 04:05:45;;;;;;;2.15;1.35;;;21.20;54.60;;;;;;6149881;22;86887;-63
2024/02/07 04:08:11;;;;;;;2.65;1.63;;;21.20;54.70;;;;;;6147726;22;87458;-64
2024/02/07 04:10:41;;;;;;;2.38;1.40;;;21.20;54.60;;;;;;6148703;22;88596;-64
2024/02/07 05:15:55;;;;;;;2.22;1.60;;;21.00;54.80;;;;;;6149409;22;88402;-64
2024/02/07 05:18:21;;;;;;;2.10;1.40;;;20.90;54.70;;;;;;6149652;22;88587;-63
2024/02/07 05:20:51;;;;;;;3.33;1.63;;;20.90;54.70;;;;;;6150738;22;87906;-65
2024/02/07 05:23:16;;;;;;;1.90;1.23;;;20.90;54.90;;;;;;6149097;22;86801;-64
2024/02/07 05:25:44;;;;;;;2.08;1.55;;;20.90;54.80;;;;;;6148413;22;88137;-64
2024/02/07 05:28:12;;;;;;;1.98;1.50;;;20.90;54.80;;;;;;6121352;22;88039;-65
2024/02/07 05:30:39;;;;;;;2.40;1.67;;;20.90;54.70;;;;;;6148663;22;87612;-65
2024/02/07 05:33:05;;;;;;;1.90;1.30;;;20.90;55.00;;;;;;6121841;22;87767;-62
2024/02/07 05:35:30;;;;;;;2.80;1.45;;;20.90;54.80;;;;;;6149383;22;87720;-64
2024/02/07 05:37:56;;;;;;;2.05;1.40;;;20.90;54.70;;;;;;6121545;22;88122;-64
2024/02/07 05:40:21;;;;;;;3.08;1.23;;;20.90;54.80;;;;;;6122095;22;88467;-65
2024/02/07 05:42:47;;;;;;;2.42;1.80;;;20.80;54.70;;;;;;6142015;22;87177;-65
2024/02/07 05:45:13;;;;;;;1.83;1.67;;;20.80;54.70;;;;;;6120191;22;88109;-65
2024/02/07 05:47:40;;;;;;;1.50;1.35;;;20.90;54.80;;;;;;6122618;22;88610;-66
2024/02/07 05:50:09;;;;;;;2.05;1.58;;;20.80;54.70;;;;;;6145963;22;86900;-63
2024/02/07 05:52:38;;;;;;;2.20;1.77;;;20.80;54.80;;;;;;6093308;22;88297;-64
2024/02/07 05:55:05;;;;;;;1.85;1.42;;;20.80;55.40;;;;;;6143755;22;88456;-65
2024/02/07 05:57:33;;;;;;;2.03;1.45;;;20.80;54.80;;;;;;6149849;22;88426;-65
2024/02/07 05:59:59;;;;;;;1.88;1.63;;;20.80;54.70;;;;;;6148727;22;87090;-66
2024/02/07 06:02:27;;;;;;;2.75;1.60;;;20.80;54.80;;;;;;6123411;22;89508;-65
2024/02/07 06:04:54;;;;;;;2.03;1.77;;;20.80;54.60;;;;;;6121530;22;90087;-64
2024/02/07 06:07:20;;;;;;;2.22;1.73;;;20.80;54.60;;;;;;6149352;22;88967;-63
2024/02/07 06:09:46;;;;;;;1.98;1.30;;;20.80;54.60;;;;;;6146100;22;87384;-65
2024/02/07 06:12:15;;;;;;;2.03;1.60;;;20.80;54.60;;;;;;6121963;22;87362;-64
2024/02/07 06:14:41;;;;;;;2.00;1.52;;;20.80;54.60;;;;;;6123395;22;89303;-64
2024/02/07 06:17:07;;;;;;;1.52;1.27;;;20.80;54.50;;;;;;6148288;22;88841;-65
2024/02/07 06:19:33;;;;;;;1.50;1.20;;;20.80;54.50;;;;;;6148755;22;87212;-64
2024/02/07 06:21:59;;;;;;;1.33;1.13;;;20.70;54.50;;;;;;6149714;22;86595;-64
2024/02/07 06:24:24;;;;;;;1.83;1.20;;;20.70;54.50;;;;;;6142366;22;87449;-64
2024/02/07 06:26:50;;;;;;;1.48;1.33;;;20.70;54.60;;;;;;6150545;22;87729;-63
2024/02/07 06:29:16;;;;;;;3.75;1.58;;;20.70;54.50;;;;;;6121123;22;88585;-65
2024/02/07 06:31:42;;;;;;;1.20;1.10;;;20.70;54.50;;;;;;6122015;22;87251;-63
2024/02/07 06:34:08;;;;;;;2.00;1.40;;;20.70;54.50;;;;;;6119498;22;88443;-62
2024/02/07 06:36:33;;;;;;;1.95;1.50;;;20.70;54.50;;;;;;6097259;22;88567;-65
2024/02/07 06:38:59;;;;;;;2.17;1.35;;;20.70;54.40;;;;;;6149732;22;87325;-65
2024/02/07 06:41:25;;;;;;;2.28;1.48;;;20.70;54.50;;;;;;6149940;22;87335;-64
2024/02/07 06:43:50;;;;;;;1.80;1.25;;;20.70;54.70;;;;;;6122396;22;88324;-63
2024/02/07 06:46:16;;;;;;;1.88;1.35;;;20.70;54.70;;;;;;6151188;22;87202;-65
2024/02/07 06:48:42;;;;;;;1.98;1.30;;;20.70;54.70;;;;;;6123439;22;87067;-64
2024/02/07 06:51:08;;;;;;;3.03;1.60;;;20.60;54.70;;;;;;6150025;22;87403;-63
2024/02/07 06:53:34;;;;;;;1.70;1.40;;;20.70;54.70;;;;;;6149752;22;88983;-65
2024/02/07 06:56:00;;;;;;;1.88;1.58;;;20.60;54.70;;;;;;6122784;22;90233;-64
2024/02/07 06:58:29;;;;;;;2.15;1.45;;;20.60;54.80;;;;;;6148698;22;87469;-62
2024/02/07 07:00:56;;;;;;;1.83;1.25;;;20.60;54.70;;;;;;6150718;22;88445;-65
2024/02/07 07:03:22;;;;;;;1.33;1.23;;;20.60;54.80;;;;;;6150818;22;88498;-63
2024/02/07 07:05:48;;;;;;;2.05;1.45;;;20.60;54.60;;;;;;6123744;22;87878;-66
2024/02/07 07:08:15;;;;;;;1.92;1.35;;;20.60;54.60;;;;;;6114299;22;86981;-63
2024/02/07 07:10:42;;;;;;;2.63;1.63;;;20.60;54.50;;;;;;6122904;22;87462;-62
2024/02/07 07:13:08;;;;;;;1.98;1.48;;;20.60;54.60;;;;;;6122694;22;88430;-64
2024/02/07 07:15:35;;;;;;;1.85;1.15;;;20.60;54.70;;;;;;6150293;22;88065;-63
2024/02/07 07:18:01;;;;;;;1.40;1.30;;;20.60;54.50;;;;;;6123615;22;88705;-65
2024/02/07 07:20:31;;;;;;;1.83;1.40;;;20.60;54.60;;;;;;6123705;22;87563;-63
2024/02/07 07:23:02;;;;;;;1.63;1.30;;;20.60;54.70;;;;;;6149329;22;88121;-64
2024/02/07 07:25:28;;;;;;;5.00;1.63;;;20.60;54.60;;;;;;6149702;22;88145;-63
2024/02/07 07:27:54;;;;;;;1.23;1.00;;;20.50;54.40;;;;;;6123122;22;87303;-65
2024/02/07 07:30:20;;;;;;;1.98;1.45;;;20.60;54.50;;;;;;6149290;22;87097;-65
2024/02/07 07:32:47;;;;;;;2.05;1.25;;;20.60;54.40;;;;;;6150745;22;88152;-65
2024/02/07 07:35:13;;;;;;;2.88;1.83;;;20.60;53.90;;;;;;6149033;22;88029;-65
2024/02/07 07:37:41;;;;;;;7.78;1.75;;;20.60;53.80;;;;;;6145396;22;87101;-65
2024/02/07 07:40:07;;;;;;;3.63;1.77;;;20.60;54.20;;;;;;6144515;22;87252;-63
2024/02/07 07:42:33;;;;;;;1.90;1.30;;;20.60;54.20;;;;;;6143619;22;88935;-64
2024/02/07 07:44:59;;;;;;;2.80;1.48;;;20.70;54.10;;;;;;6150780;22;87718;-65
2024/02/07 07:47:25;;;;;;;2.70;1.60;;;20.70;54.80;;;;;;6123560;22;86985;-64
2024/02/07 07:49:51;;;;;;;2.47;1.90;;;20.80;55.00;;;;;;6122708;22;87338;-64
2024/02/07 07:52:17;;;;;;;2.70;1.58;;;20.90;55.10;;;;;;6149267;22;87609;-64
2024/02/07 07:54:43;;;;;;;2.80;1.77;;;21.10;55.20;;;;;;6150512;22;87568;-61
2024/02/07 07:57:08;;;;;;;1.90;1.38;;;21.20;55.20;;;;;;6149066;22;87410;-62
2024/02/07 07:59:34;;;;;;;2.92;1.52;;;21.30;55.00;;;;;;6123749;22;88475;-63
2024/02/07 08:02:02;;;;;;;3.35;1.50;;;21.40;55.10;;;;;;6149503;22;88167;-62
2024/02/07 08:04:28;;;;;;;5.00;1.92;;;21.50;54.90;;;;;;6123095;22;88517;-63
2024/02/07 08:06:55;;;;;;;3.45;1.58;;;21.60;54.80;;;;;;6149635;22;87929;-63
2024/02/07 08:09:22;;;;;;;4.18;1.63;;;21.60;54.70;;;;;;6123682;22;87391;-61
2024/02/07 08:11:48;;;;;;;2.53;1.60;;;21.70;54.80;;;;;;6123528;22;87523;-63
2024/02/07 08:14:14;;;;;;;1.55;0.93;;;21.70;54.60;;;;;;6122949;22;88048;-64
2024/02/07 08:16:42;;;;;;;2.60;1.38;;;21.80;54.60;;;;;;6120079;22;87270;-63
2024/02/07 08:19:08;;;;;;;1.75;1.23;;;21.80;54.60;;;;;;6121201;22;87272;-63
2024/02/07 08:21:34;;;;;;;2.63;1.20;;;21.80;54.40;;;;;;6144042;22;87517;-61
2024/02/07 08:24:00;;;;;;;2.88;1.42;;;21.90;54.40;;;;;;6148107;22;88160;-63
2024/02/07 08:26:26;;;;;;;1.80;1.20;;;21.90;54.30;;;;;;6149931;22;87505;-63
2024/02/07 08:28:51;;;;;;;2.50;1.25;;;21.90;54.40;;;;;;6149037;22;87311;-61
2024/02/07 08:31:18;;;;;;;2.67;1.20;;;22.00;54.20;;;;;;6116696;22;89209;-63
2024/02/07 08:33:44;;;;;;;2.55;1.27;;;22.00;54.30;;;;;;6146816;22;88145;-66
2024/02/07 08:36:11;;;;;;;3.00;1.40;;;22.10;54.10;;;;;;6149015;22;87641;-64
2024/02/07 08:38:37;;;;;;;2.17;1.10;;;22.00;54.10;;;;;;6122394;22;87402;-64
2024/02/07 08:41:04;;;;;;;2.60;1.63;;;22.10;54.00;;;;;;6121818;22;91614;-64
2024/02/07 08:43:31;;;;;;;2.25;1.25;;;22.10;54.10;;;;;;6148412;22;87754;-64
2024/02/07 08:45:57;;;;;;;4.03;1.45;;;22.10;54.10;;;;;;6119449;22;87115;-63
2024/02/07 08:48:24;;;;;;;9.95;1.50;;;22.10;54.20;;;;;;6122360;22;87300;-64
2024/02/07 08:50:51;;;;;;;2.10;1.20;;;22.10;54.10;;;;;;6123153;22;89488;-64
2024/02/07 08:53:16;;;;;;;5.40;1.70;;;22.10;54.20;;;;;;6149719;22;88291;-64
2024/02/07 08:55:42;;;;;;;3.35;1.50;;;22.20;54.30;;;;;;6149245;22;88314;-66
2024/02/07 08:58:10;;;;;;;3.38;1.52;;;22.20;54.20;;;;;;6119088;22;87632;-63
2024/02/07 09:00:36;;;;;;;7.90;2.05;;;22.20;54.00;;;;;;6146061;22;88311;-64
2024/02/07 09:03:02;;;;;;;5.47;1.63;;;22.20;54.10;;;;;;6135049;22;89236;-62
2024/02/07 09:05:28;;;;;;;4.43;1.77;;;22.20;54.20;;;;;;6150568;22;87678;-63
2024/02/07 09:07:53;;;;;;;4.57;1.92;;;22.20;54.00;;;;;;6149056;22;87086;-61
2024/02/07 09:10:20;;;;;;;3.13;1.70;;;22.20;54.20;;;;;;6148654;22;88671;-62
2024/02/07 09:12:46;;;;;;;5.65;1.67;;;22.20;54.20;;;;;;6147100;22;88682;-63
2024/02/07 09:15:12;;;;;;;7.55;3.10;;;22.20;54.20;;;;;;6145364;22;87603;-62
2024/02/07 09:17:37;;;;;;;7.30;2.33;;;22.30;54.20;;;;;;6097368;22;87400;-62
2024/02/07 09:20:04;;;;;;;10.05;2.63;;;22.30;54.10;;;;;;6121430;22;89745;-67
2024/02/07 09:22:30;;;;;;;7.57;2.30;;;22.30;54.10;;;;;;6120990;22;88785;-63
2024/02/07 09:24:56;;;;;;;7.45;2.63;;;22.40;54.10;;;;;;6148432;22;87464;-62
2024/02/07 09:27:22;;;;;;;6.75;2.60;;;22.40;54.00;;;;;;6147419;22;87711;-62
2024/02/07 09:29:48;;;;;;;8.52;2.58;;;22.40;54.10;;;;;;6147646;22;88077;-62
2024/02/07 09:32:14;;;;;;;10.32;3.05;;;22.40;54.10;;;;;;6145068;22;87352;-62
2024/02/07 09:34:44;;;;;;;11.48;2.80;;;22.40;54.00;;;;;;6148703;22;87637;-62
2024/02/07 09:37:10;;;;;;;8.27;2.55;;;22.40;54.00;;;;;;6118729;22;88563;-63
2024/02/07 09:39:36;;;;;;;9.18;2.65;;;22.40;54.00;;;;;;6147403;22;88011;-62
2024/02/07 09:42:04;;;;;;;11.38;2.90;;;22.50;54.10;;;;;;6119161;22;90724;-64
2024/02/07 09:44:35;;;;;;;7.90;2.65;;;22.50;53.90;;;;;;6149783;22;88184;-64
2024/02/07 09:47:01;;;;;;;12.63;2.92;;;22.50;53.90;;;;;;6120419;22;87635;-63
2024/02/07 09:49:28;;;;;;;6.95;2.30;;;22.50;53.90;;;;;;6121498;22;90450;-62
2024/02/07 09:51:55;;;;;;;6.90;2.35;;;22.50;53.10;;;;;;6121333;22;88777;-63
2024/02/07 09:54:22;;;;;;;5.97;2.38;;;22.50;52.30;;;;;;6121918;22;87632;-63
2024/02/07 09:56:50;;;;;;;7.32;2.05;;;22.50;52.00;;;;;;6150073;22;87884;-63
2024/02/07 09:59:19;;;;;;;8.85;2.75;;;22.40;52.30;;;;;;6149720;22;87507;-63
2024/02/07 10:01:45;;;;;;;;;;;22.50;52.60;;;;;;6146544;22;87183;-63
2024/02/07 10:04:19;;;;;;;5.07;2.20;;;22.50;52.60;;;;;;6151218;22;87051;-61
2024/02/07 10:06:45;;;;;;;8.00;2.45;;;22.50;52.40;;;;;;6146750;22;87049;-64
2024/02/07 10:09:11;;;;;;;7.38;2.33;;;22.50;51.60;;;;;;6146151;22;89157;-62
2024/02/07 10:11:39;;;;;;;7.03;2.33;;;22.60;52.10;;;;;;6149886;22;88160;-65
2024/02/07 10:14:08;;;;;;;5.15;2.47;;;22.60;51.60;;;;;;6150177;22;86861;-65
2024/02/07 10:16:34;;;;;;;5.88;2.03;;;22.60;51.20;;;;;;6122991;22;87561;-64
2024/02/07 10:19:01;;;;;;;8.52;1.80;;;22.50;51.10;;;;;;6122738;22;88948;-64
2024/02/07 10:21:34;;;;;;;5.75;2.20;;;22.50;51.10;;;;;;6149335;22;87714;-65
2024/02/07 10:24:03;;;;;;;6.60;2.45;;;22.50;51.30;;;;;;6122276;22;87665;-65
2024/02/07 10:26:30;;;;;;;4.70;1.67;;;22.50;51.30;;;;;;6098540;22;89451;-63
2024/02/07 10:29:05;;;;;;;5.53;2.22;;;22.60;51.30;;;;;;6147604;22;88285;-64
2024/02/07 10:31:32;;;;;;;6.03;2.10;;;22.50;51.10;;;;;;6145963;22;88691;-62
2024/02/07 10:33:58;;;;;;;5.47;2.17;;;22.60;51.20;;;;;;6117531;22;88219;-62
2024/02/07 10:36:25;;;;;;;5.28;2.05;;;22.60;51.20;;;;;;6148641;22;86869;-62
2024/02/07 10:39:02;;;;;;;3.83;1.48;;;22.60;51.10;;;;;;6122158;22;89179;-62
2024/02/07 10:41:29;;;;;;;8.57;2.10;;;22.60;51.20;;;;;;6120991;22;93835;-70
2024/02/07 10:44:05;;;;;;;4.28;2.00;;;22.70;51.30;;;;;;6121584;22;87199;-62
2024/02/07 10:46:31;;;;;;;5.65;1.92;;;22.70;51.30;;;;;;6148367;22;87324;-61
2024/02/07 10:48:59;;;;;;;4.57;1.88;;;22.70;51.30;;;;;;6121571;22;88330;-61
2024/02/07 10:51:30;;;;;;;6.22;2.55;;;22.70;51.20;;;;;;6149476;22;87814;-63
2024/02/07 10:54:03;;;;;;;5.70;1.90;;;22.70;51.40;;;;;;6122891;22;87368;-62
2024/02/07 10:56:35;;;;;;;5.03;2.05;;;22.70;51.50;;;;;;6149117;22;91894;-62
2024/02/07 10:59:02;;;;;;;4.57;1.80;;;22.60;51.60;;;;;;6119519;22;89822;-65
2024/02/07 11:01:29;;;;;;;3.65;1.70;;;22.70;51.70;;;;;;6148068;22;90054;-61
2024/02/07 11:03:58;;;;;;;5.78;2.10;;;22.70;51.80;;;;;;6123152;22;87381;-62
2024/02/07 11:06:26;;;;;;;5.78;1.80;;;22.70;51.70;;;;;;6121542;22;88016;-63
2024/02/07 11:08:58;;;;;;;4.63;2.10;;;22.70;52.40;;;;;;6150524;22;87863;-63
2024/02/07 11:11:26;;;;;;;4.22;1.50;;;22.70;51.80;;;;;;6149209;22;91435;-62
2024/02/07 11:13:52;;;;;;;3.58;1.45;;;22.70;52.00;;;;;;6097287;22;87176;-61
2024/02/07 11:16:19;;;;;;;4.82;2.10;;;22.70;52.10;;;;;;6122509;22;87068;-61
2024/02/07 11:18:45;;;;;;;8.15;2.70;;;22.60;52.20;;;;;;6121945;22;88111;-62
2024/02/07 11:21:16;;;;;;;5.72;2.28;;;22.60;52.30;;;;;;6113969;22;88908;-62
2024/02/07 11:23:46;;;;;;;4.28;1.90;;;22.60;52.60;;;;;;6151185;22;88390;-60
2024/02/07 11:26:13;;;;;;;8.50;2.45;;;22.50;52.60;;;;;;6143111;22;88641;-62
2024/02/07 11:28:38;;;;;;;6.22;2.08;;;22.50;52.70;;;;;;6150688;22;87646;-59
2024/02/07 11:31:06;;;;;;;4.72;1.60;;;22.40;52.90;;;;;;6122729;22;88091;-62
2024/02/07 11:33:35;;;;;;;4.60;1.83;;;22.40;52.80;;;;;;6135450;22;87891;-63
2024/02/07 11:36:17;;;;;;;11.60;2.83;;;22.30;53.00;;;;;;6147711;22;87211;-59
2024/02/07 11:39:02;;;;;;;5.25;2.50;;;22.40;52.80;;;;;;6097416;22;88489;-62
2024/02/07 11:41:28;;;;;;;14.50;5.10;;;22.30;53.00;;;;;;6150245;22;93759;-62
2024/02/07 11:44:06;;;;;;;41.25;12.00;;;22.30;52.00;;;;;;6120786;22;87381;-62
2024/02/07 11:46:32;;;;;;;37.28;11.05;;;22.40;52.70;;;;;;6148107;22;87299;-61
2024/02/07 11:49:01;;;;;;;34.17;10.45;;;22.40;53.10;;;;;;6120434;22;90781;-61
2024/02/07 11:51:26;;;;;;;30.98;10.15;;;22.40;53.10;;;;;;6120040;22;90703;-60
2024/02/07 11:54:00;;;;;;;38.70;10.90;;;22.40;53.30;;;;;;6121880;22;87980;-61
2024/02/07 11:56:26;;;;;;;37.47;11.60;;;22.40;53.70;;;;;;6094171;22;91228;-59
2024/02/07 11:58:53;;;;;;;43.08;11.82;;;22.40;53.90;;;;;;6148147;22;87816;-60
2024/02/07 12:01:21;;;;;;;33.83;13.23;;;22.40;54.00;;;;;;6121159;22;89245;-61
2024/02/07 12:03:57;;;;;;;31.08;10.35;;;22.50;54.40;;;;;;6148870;22;86939;-64
2024/02/07 12:06:24;;;;;;;33.60;11.07;;;22.50;54.50;;;;;;6122173;22;87350;-64
2024/02/07 12:08:50;;;;;;;32.75;11.32;;;22.50;54.80;;;;;;6149800;22;88199;-67
2024/02/07 12:11:16;;;;;;;33.67;11.63;;;22.50;55.10;;;;;;6148348;22;87799;-67
2024/02/07 12:13:42;;;;;;;38.90;11.80;;;22.50;54.80;;;;;;6120373;22;88450;-63
2024/02/07 12:16:09;;;;;;;36.58;10.32;;;22.50;55.00;;;;;;6131951;22;86847;-63
2024/02/07 12:18:35;;;;;;;28.10;10.82;;;22.60;54.80;;;;;;6145958;22;87747;-74
2024/02/07 12:21:02;;;;;;;29.65;9.88;;;22.60;54.70;;;;;;6147711;22;88080;-63
2024/02/07 12:23:29;;;;;;;35.55;11.15;;;22.50;54.60;;;;;;6147290;22;87642;-61
2024/02/07 12:26:00;;;;;;;31.48;10.75;;;22.50;54.60;;;;;;6146012;22;87389;-63
2024/02/07 12:28:26;;;;;;;25.30;9.27;;;22.50;55.10;;;;;;6147167;22;88045;-63
2024/02/07 12:30:55;;;;;;;30.02;10.32;;;22.60;54.80;;;;;;6144996;22;87437;-64
2024/02/07 12:33:25;;;;;;;28.30;10.38;;;22.60;55.10;;;;;;6121941;22;87881;-63
2024/02/07 12:35:53;;;;;;;26.02;9.02;;;22.60;55.10;;;;;;6122229;22;87532;-62
2024/02/07 12:38:19;;;;;;;28.90;9.32;;;22.60;54.60;;;;;;6121990;22;90050;-61
2024/02/07 12:40:47;;;;;;;29.23;8.82;;;22.60;55.00;;;;;;6148504;22;89269;-62
2024/02/07 12:43:13;;;;;;;25.25;9.50;;;22.60;55.00;;;;;;6120934;22;87317;-61
2024/02/07 12:45:39;;;;;;;24.77;8.77;;;22.60;54.80;;;;;;6146359;22;87474;-60
2024/02/07 12:48:05;;;;;;;31.77;10.13;;;22.60;54.80;;;;;;6148045;22;87936;-63
2024/02/07 12:50:31;;;;;;;21.45;8.68;;;22.60;55.30;;;;;;6148250;22;87344;-64
2024/02/07 12:52:57;;;;;;;28.02;8.93;;;22.60;55.00;;;;;;6147216;22;87298;-62
2024/02/07 12:55:23;;;;;;;24.08;8.73;;;22.60;54.80;;;;;;6119548;22;87381;-67
2024/02/07 12:57:59;;;;;;;27.58;8.50;;;22.60;55.00;;;;;;6118656;22;90104;-65
2024/02/07 13:00:25;;;;;;;23.85;9.10;;;22.60;54.80;;;;;;6121140;22;87873;-64
2024/02/07 13:02:52;;;;;;;24.55;8.77;;;22.60;55.00;;;;;;6122737;22;87894;-62
2024/02/07 13:05:18;;;;;;;22.10;8.50;;;22.60;54.70;;;;;;6121397;22;88315;-64
2024/02/07 13:07:44;;;;;;;23.88;7.53;;;22.60;54.60;;;;;;6095650;22;87829;-64
2024/02/07 13:10:10;;;;;;;20.85;7.60;;;22.60;54.90;;;;;;6148208;22;87631;-64
2024/02/07 13:12:38;;;;;;;26.10;8.88;;;22.60;54.60;;;;;;6121955;22;87453;-62
2024/02/07 13:15:06;;;;;;;20.83;7.40;;;22.60;54.40;;;;;;6147233;22;87325;-63
2024/02/07 13:17:35;;;;;;;28.08;8.05;;;22.60;55.00;;;;;;6121640;22;90813;-67
2024/02/07 13:20:02;;;;;;;;;;;22.70;55.00;;;;;;6121679;22;87480;-64
2024/02/07 13:22:28;;;;;;;18.42;6.82;;;22.60;55.00;;;;;;6150613;22;87013;-65
2024/02/07 13:24:54;;;;;;;20.02;7.05;;;22.70;54.60;;;;;;6148096;22;87594;-63
2024/02/07 13:27:20;;;;;;;20.73;6.88;;;22.70;54.80;;;;;;6121097;22;91243;-63
2024/02/07 13:29:46;;;;;;;20.00;7.93;;;22.60;54.90;;;;;;6149989;22;88216;-64
2024/02/07 13:32:15;;;;;;;20.10;7.80;;;22.60;55.10;;;;;;6149096;22;87503;-65
2024/02/07 13:34:41;;;;;;;12.98;5.13;;;22.70;55.00;;;;;;6149055;22;87217;-59
2024/02/07 13:37:08;;;;;;;16.98;4.90;;;22.60;54.50;;;;;;6116560;22;88030;-70
2024/02/07 13:39:34;;;;;;;17.50;5.82;;;22.60;54.10;;;;;;6121556;22;87941;-70
2024/02/07 13:41:59;;;;;;;23.08;6.65;;;22.60;53.80;;;;;;6141757;22;87008;-67
2024/02/07 13:44:25;;;;;;;16.60;5.53;;;22.50;53.60;;;;;;6148556;22;86595;-70
2024/02/07 13:46:51;;;;;;;14.85;5.28;;;22.50;53.80;;;;;;6145624;22;87986;-70
2024/02/07 13:49:16;;;;;;;23.95;6.47;;;22.50;53.90;;;;;;6146825;22;87189;-71